Time;durP1;ratioP1;P1;durP2;ratioP2;P2;SDS_P1;SDS_P2;PMS_P1;PMS_P2;Temp;Humidity;BMP_temperature;BMP_pressure;BME280_temperature;BME280_humidity;BME280_pressure;Samples;Min_cycle;Max_cycle;Signal;HPM_P1;HPM_P2
2023/01/02 00:00:49;;;;;;;32.50;24.97;;;;;;;3.69;65.03;100917.81;5017675;28;20069;-80
2023/01/02 00:03:15;;;;;;;29.53;21.27;;;;;;;4.19;65.35;101017.38;5034336;28;20081;-79
2023/01/02 00:05:40;;;;;;;28.27;22.03;;;;;;;4.47;65.25;101073.00;5018723;28;20036;-79
2023/01/02 00:08:06;;;;;;;27.30;21.93;;;;;;;4.32;65.18;101058.28;5019156;28;20041;-79
2023/01/02 00:10:31;;;;;;;25.07;20.07;;;;;;;4.25;65.40;101041.31;5019477;28;20087;-80
2023/01/02 00:12:56;;;;;;;24.77;20.27;;;;;;;4.25;65.25;101045.72;5018612;28;20052;-79
2023/01/02 00:15:22;;;;;;;27.40;20.73;;;;;;;3.82;65.31;100981.41;5015281;28;20033;-79
2023/01/02 00:17:47;;;;;;;49.60;31.03;;;;;;;4.27;65.32;101051.69;5013847;28;20104;-80
2023/01/02 00:20:13;;;;;;;44.87;28.40;;;;;;;3.47;65.17;100928.00;5014013;28;20088;-79
2023/01/02 00:22:38;;;;;;;33.63;25.70;;;;;;;4.31;65.43;101072.31;5013803;28;20026;-79
2023/01/02 00:25:04;;;;;;;30.97;22.83;;;;;;;4.12;65.34;101059.59;5013797;28;20021;-79
2023/01/02 00:27:29;;;;;;;31.50;23.00;;;;;;;4.28;65.55;101085.56;5013816;28;20525;-79
2023/01/02 00:29:55;;;;;;;30.00;22.50;;;;;;;4.32;65.49;101087.06;5012640;28;20122;-79
2023/01/02 00:32:20;;;;;;;28.03;22.03;;;;;;;3.89;65.32;101015.00;5013784;28;20105;-79
2023/01/02 00:34:46;;;;;;;29.73;22.80;;;;;;;3.40;65.16;100958.03;5013565;28;20036;-79
2023/01/02 00:37:11;;;;;;;29.10;20.67;;;;;;;4.26;65.44;101070.94;5013486;28;20498;-79
2023/01/02 00:39:36;;;;;;;29.00;20.40;;;;;;;3.33;65.44;100922.81;5013584;28;20041;-79
2023/01/02 00:42:02;;;;;;;25.47;19.87;;;;;;;3.54;65.10;100958.00;5012397;28;20022;-79
2023/01/02 00:44:27;;;;;;;24.67;18.77;;;;;;;4.45;65.26;101089.69;5013167;28;20080;-79
2023/01/02 00:46:53;;;;;;;27.33;20.50;;;;;;;4.43;65.34;101084.56;5012443;28;20037;-79
2023/01/02 00:49:18;;;;;;;26.70;19.80;;;;;;;4.09;65.33;101032.81;5013843;28;20029;-79
2023/01/02 00:51:43;;;;;;;25.90;20.17;;;;;;;3.99;65.30;101027.34;5013760;28;20089;-79
2023/01/02 00:54:09;;;;;;;50.63;30.33;;;;;;;4.38;65.27;101091.88;5013813;28;20109;-79
2023/01/02 00:56:34;;;;;;;37.57;25.60;;;;;;;2.99;65.26;100853.66;5013472;28;20026;-79
2023/01/02 00:59:00;;;;;;;34.53;23.37;;;;;;;4.39;65.12;101105.78;5013540;28;20127;-79
2023/01/02 01:01:25;;;;;;;32.50;23.63;;;;;;;4.05;65.21;101034.78;5013103;28;20036;-79
2023/01/02 01:03:51;;;;;;;28.07;21.20;;;;;;;4.39;65.41;101093.56;5013464;28;20021;-79
2023/01/02 01:06:16;;;;;;;33.77;24.00;;;;;;;4.23;65.29;101060.66;5013278;28;20560;-79
2023/01/02 01:08:41;;;;;;;31.07;22.20;;;;;;;4.30;65.26;101086.31;5013111;28;20104;-79
2023/01/02 01:11:10;;;;;;;26.13;20.10;;;;;;;4.37;65.07;101089.38;5012956;28;20032;-80
2023/01/02 01:13:36;;;;;;;26.57;19.07;;;;;;;3.58;65.11;100985.59;5013012;28;20049;-79
2023/01/02 01:16:10;;;;;;;22.40;17.53;;;;;;;4.20;65.10;101066.94;5013180;28;20032;-79
2023/01/02 01:18:36;;;;;;;25.47;17.90;;;;;;;3.38;64.94;100939.03;5011963;28;20029;-79
2023/01/02 01:21:16;;;;;;;23.47;16.37;;;;;;;4.07;64.96;101045.97;5012965;28;20487;-79
2023/01/02 01:23:42;;;;;;;24.57;17.30;;;;;;;3.99;65.35;101044.81;5012937;28;20026;-79
2023/01/02 01:26:11;;;;;;;22.37;17.07;;;;;;;4.19;65.18;101075.72;5012768;28;20033;-79
2023/01/02 01:28:37;;;;;;;34.60;22.97;;;;;;;4.17;65.13;101074.97;5027988;28;20033;-80
2023/01/02 01:31:04;;;;;;;37.53;24.60;;;;;;;4.16;65.25;101070.69;5018357;28;20034;-79
2023/01/02 01:33:30;;;;;;;30.07;20.93;;;;;;;3.86;65.13;101036.91;5017942;28;20034;-80
2023/01/02 01:36:00;;;;;;;22.70;15.73;;;;;;;3.65;65.23;101028.66;5019032;28;20586;-79
2023/01/02 01:38:26;;;;;;;21.53;16.13;;;;;;;3.64;65.82;101011.31;5017906;28;20028;-79
2023/01/02 01:40:51;;;;;;;20.67;15.13;;;;;;;3.43;65.60;100973.50;5019590;28;20026;-78
2023/01/02 01:43:34;;;;;;;19.30;15.13;;;;;;;3.90;65.36;101034.94;5019066;28;20487;-78
2023/01/02 01:46:00;;;;;;;18.90;14.57;;;;;;;4.00;65.44;101055.16;5019287;28;20040;-79
2023/01/02 01:48:26;;;;;;;20.47;14.73;;;;;;;3.00;65.69;100887.50;5019750;28;20056;-78
2023/01/02 01:50:52;;;;;;;18.83;15.70;;;;;;;2.67;65.25;100840.84;5021618;28;20502;-79
2023/01/02 01:53:21;;;;;;;18.87;14.87;;;;;;;4.01;65.18;101053.38;5020374;28;20081;-79
2023/01/02 01:55:58;;;;;;;22.97;15.90;;;;;;;3.95;65.23;101046.78;5017384;28;20598;-79
2023/01/02 01:58:30;;;;;;;19.33;14.43;;;;;;;2.81;65.29;100851.25;5017923;28;20037;-79
2023/01/02 02:00:55;;;;;;;19.23;13.60;;;;;;;4.05;65.33;101055.69;5019147;28;20097;-79
2023/01/02 02:03:24;;;;;;;19.83;14.43;;;;;;;3.98;65.40;101046.59;5035449;28;20033;-79
2023/01/02 02:05:50;;;;;;;22.23;15.13;;;;;;;4.05;65.22;101073.16;5020423;28;20057;-79
2023/01/02 02:08:21;;;;;;;21.90;16.23;;;;;;;4.08;65.36;101049.44;5019951;28;20414;-79
2023/01/02 02:10:47;;;;;;;24.27;17.77;;;;;;;3.92;65.25;101017.41;5020009;28;20473;-78
2023/01/02 02:13:13;;;;;;;19.17;15.43;;;;;;;4.11;65.40;101052.69;5020146;28;20076;-78
2023/01/02 02:15:51;;;;;;;20.03;15.80;;;;;;;4.13;65.39;101049.97;5014762;28;20032;-79
2023/01/02 02:18:44;;;;;;;21.57;15.57;;;;;;;4.13;65.21;101040.34;5011985;28;20034;-79
2023/01/02 02:21:39;;;;;;;23.27;16.63;;;;;;;4.09;65.78;101041.50;5011805;28;20083;-79
2023/01/02 02:24:47;;;;;;;21.73;16.43;;;;;;;4.08;65.45;101044.22;5011916;28;20105;-79
2023/01/02 02:27:31;;;;;;;22.80;17.10;;;;;;;4.05;65.27;101039.19;5011833;28;20027;-79
2023/01/02 02:30:13;;;;;;;29.93;19.57;;;;;;;3.94;65.50;101018.13;5015519;28;20025;-79
2023/01/02 02:32:47;;;;;;;37.88;22.75;;;;;;;4.06;65.42;101041.69;5020736;28;20056;-79
2023/01/02 02:35:34;;;;;;;29.60;18.80;;;;;;;4.11;65.56;101044.00;5020792;28;20081;-79
2023/01/02 02:38:08;;;;;;;26.60;18.63;;;;;;;4.12;65.37;101043.06;5020985;28;20022;-79
2023/01/02 02:41:03;;;;;;;26.37;17.53;;;;;;;3.01;65.14;100889.16;5020130;28;20030;-79
2023/01/02 02:43:41;;;;;;;46.27;29.50;;;;;;;3.96;65.61;101052.84;5019419;28;20053;-79
2023/01/02 02:46:17;;;;;;;23.73;17.30;;;;;;;2.92;65.53;100910.56;5015859;28;20040;-79
2023/01/02 02:49:19;;;;;;;22.87;17.60;;;;;;;3.88;65.70;101042.06;5015565;28;20049;-79
2023/01/02 02:52:01;;;;;;;23.73;16.57;;;;;;;3.11;65.79;100928.56;5015428;28;20121;-79
2023/01/02 02:54:34;;;;;;;22.58;17.55;;;;;;;3.54;65.86;100978.03;5015751;28;20145;-79
2023/01/02 02:57:01;;;;;;;26.80;17.47;;;;;;;3.05;65.66;100895.03;5015544;28;20430;-79
2023/01/02 02:59:28;;;;;;;24.60;17.53;;;;;;;3.72;65.91;100998.63;5015422;28;20034;-79
2023/01/02 03:01:53;;;;;;;21.83;17.33;;;;;;;3.96;65.98;101039.78;5015238;28;20120;-79
2023/01/02 03:04:20;;;;;;;24.87;18.27;;;;;;;3.92;66.37;101027.84;5015434;28;20100;-79
2023/01/02 03:07:13;;;;;;;22.30;18.20;;;;;;;3.90;66.13;101019.28;5015168;28;20033;-79
2023/01/02 03:09:48;;;;;;;26.43;18.17;;;;;;;4.03;65.64;101028.00;5015013;28;20033;-79
2023/01/02 03:12:24;;;;;;;25.33;17.93;;;;;;;4.04;65.57;101024.44;5015073;28;20080;-79
2023/01/02 03:15:15;;;;;;;23.37;18.67;;;;;;;4.02;65.43;101023.69;5015842;28;20044;-80
2023/01/02 03:18:01;;;;;;;34.57;24.07;;;;;;;3.99;65.59;101027.34;5020094;28;20032;-79
2023/01/02 03:20:35;;;;;;;34.60;24.40;;;;;;;3.35;65.36;100918.34;5018904;28;20030;-79
2023/01/02 03:23:06;;;;;;;28.00;21.40;;;;;;;3.88;65.46;101000.25;5034848;28;20458;-79
2023/01/02 03:25:34;;;;;;;25.63;20.77;;;;;;;4.00;65.45;101015.97;5020053;28;20041;-79
2023/01/02 03:28:03;;;;;;;28.70;20.87;;;;;;;3.42;65.44;100936.13;5020239;28;20033;-79
2023/01/02 03:30:32;;;;;;;29.77;20.63;;;;;;;3.70;65.77;100992.63;5017050;28;20173;-79
2023/01/02 03:33:04;;;;;;;25.03;19.63;;;;;;;3.88;65.44;101032.44;5014799;28;20029;-79
2023/01/02 03:35:39;;;;;;;22.13;17.33;;;;;;;3.64;65.35;100985.19;5014856;28;20515;-79
2023/01/02 03:38:08;;;;;;;21.57;17.13;;;;;;;3.51;65.48;100982.53;5014933;28;20488;-79
2023/01/02 03:40:41;;;;;;;21.33;16.40;;;;;;;2.77;65.41;100859.38;5014255;28;20033;-79
2023/01/02 03:43:16;;;;;;;19.13;15.23;;;;;;;3.60;65.39;100998.53;5014584;28;20021;-79
2023/01/02 03:45:49;;;;;;;20.50;15.90;;;;;;;3.71;65.48;101023.03;5014712;28;20037;-79
2023/01/02 03:48:21;;;;;;;24.53;18.07;;;;;;;3.70;65.30;101026.59;5014667;28;20040;-79
2023/01/02 03:50:53;;;;;;;22.98;16.17;;;;;;;2.77;65.32;100883.69;5014531;28;20048;-79
2023/01/02 03:53:19;;;;;;;;;;;;;;;3.54;65.55;101028.50;5014815;28;20066;-79
2023/01/02 03:56:09;;;;;;;22.37;16.93;;;;;;;3.35;65.51;100991.44;5014302;28;19913;-79
2023/01/02 03:58:55;;;;;;;23.13;16.83;;;;;;;3.57;65.65;101024.84;5014511;28;20560;-79
2023/01/02 04:01:33;;;;;;;24.93;19.17;;;;;;;3.40;65.55;101000.66;5013271;28;20026;-79
2023/01/02 04:04:11;;;;;;;39.17;22.37;;;;;;;3.10;65.45;100961.66;5014490;28;20029;-79
2023/01/02 04:06:41;;;;;;;32.33;20.77;;;;;;;2.43;65.65;100848.44;5014341;28;20104;-79
2023/01/02 04:09:11;;;;;;;31.43;21.80;;;;;;;3.55;65.49;101030.16;5014235;28;20026;-79
2023/01/02 04:11:41;;;;;;;25.57;19.33;;;;;;;3.14;65.51;100965.75;5013849;28;20030;-80
2023/01/02 04:14:16;;;;;;;27.40;19.17;;;;;;;3.37;65.54;101000.00;5014405;28;20076;-79
2023/01/02 04:16:44;;;;;;;28.33;21.60;;;;;;;3.62;65.75;101033.22;5018669;28;20034;-79
2023/01/02 04:19:25;;;;;;;29.27;21.03;;;;;;;3.45;65.42;101002.97;5019114;28;20103;-79
2023/01/02 04:21:54;;;;;;;28.90;21.77;;;;;;;2.94;65.44;100945.22;5017471;28;20060;-79
2023/01/02 04:24:37;;;;;;;35.73;24.93;;;;;;;3.09;65.36;100940.88;5018622;28;20101;-79
2023/01/02 04:27:08;;;;;;;52.73;33.40;;;;;;;3.65;65.75;101030.44;5020210;28;20495;-79
2023/01/02 04:29:34;;;;;;;55.23;34.30;;;;;;;3.67;65.23;101032.00;5020334;28;20030;-79
2023/01/02 04:32:18;;;;;;;46.07;30.57;;;;;;;3.58;65.33;101013.47;5020285;28;20466;-79
2023/01/02 04:34:46;;;;;;;42.50;27.50;;;;;;;2.55;65.53;100847.69;5020312;28;20521;-79
2023/01/02 04:37:34;;;;;;;41.40;27.27;;;;;;;3.46;65.42;100997.66;5020713;28;20025;-79
2023/01/02 04:40:24;;;;;;;39.07;27.80;;;;;;;3.09;65.29;100938.25;5020172;28;20034;-79
2023/01/02 04:42:50;;;;;;;40.40;28.80;;;;;;;3.01;65.42;100919.63;5020348;28;20041;-79
2023/01/02 04:45:15;;;;;;;46.53;34.13;;;;;;;3.52;65.37;101001.66;5021590;28;20049;-79
2023/01/02 04:47:41;;;;;;;52.60;39.60;;;;;;;3.10;65.38;100940.78;5022765;28;20026;-79
2023/01/02 04:50:07;;;;;;;52.77;35.80;;;;;;;3.71;65.37;101043.09;5022963;28;20030;-78
2023/01/02 04:52:33;;;;;;;60.83;42.13;;;;;;;3.68;64.97;101051.13;5022508;28;20036;-79
2023/01/02 04:54:59;;;;;;;67.37;45.63;;;;;;;3.56;65.16;101028.41;5022427;28;20030;-78
2023/01/02 04:57:24;;;;;;;89.17;61.67;;;;;;;2.67;65.40;100882.56;5024056;28;20040;-78
2023/01/02 04:59:49;;;;;;;78.17;54.70;;;;;;;2.49;65.59;100850.66;5020275;28;20084;-79
2023/01/02 05:02:15;;;;;;;37.00;27.27;;;;;;;3.62;65.41;101038.44;5011680;28;20037;-79
2023/01/02 05:04:40;;;;;;;49.40;36.10;;;;;;;3.44;65.34;101015.19;5013069;28;20024;-79
2023/01/02 05:07:06;;;;;;;35.70;26.77;;;;;;;3.54;65.54;101035.50;5012991;28;20085;-79
2023/01/02 05:09:31;;;;;;;41.47;29.20;;;;;;;3.56;65.66;101034.47;5012964;28;20406;-79
2023/01/02 05:11:57;;;;;;;42.90;32.60;;;;;;;2.82;65.47;100936.41;5011639;28;20084;-79
2023/01/02 05:14:22;;;;;;;45.00;35.20;;;;;;;3.59;65.15;101036.88;5013080;28;20088;-79
2023/01/02 05:16:48;;;;;;;45.53;35.67;;;;;;;3.24;65.06;100980.81;5012179;28;20491;-79
2023/01/02 05:19:13;;;;;;;44.60;35.00;;;;;;;3.58;65.11;101035.19;5013742;28;20029;-79
2023/01/02 05:24:25;;;;;;;36.50;26.87;;;;;;;3.04;64.94;100946.38;5013248;28;20028;-79
2023/01/02 05:26:50;;;;;;;37.83;29.23;;;;;;;2.86;64.79;100947.47;5012982;28;20026;-79
2023/01/02 05:29:15;;;;;;;40.90;30.00;;;;;;;3.42;65.04;101017.06;5013564;28;20396;-79
2023/01/02 05:31:41;;;;;;;38.70;29.37;;;;;;;2.73;65.04;100917.88;5017037;28;20057;-79
2023/01/02 05:34:11;;;;;;;36.50;27.40;;;;;;;3.52;65.32;101040.81;5017370;28;20037;-79
2023/01/02 05:36:37;;;;;;;35.23;25.60;;;;;;;3.51;64.83;101047.81;5017166;28;20030;-79
2023/01/02 05:39:06;;;;;;;35.17;26.53;;;;;;;3.46;65.23;101049.03;5016067;28;20575;-79
2023/01/02 05:41:32;;;;;;;39.43;27.00;;;;;;;3.23;65.20;101003.47;5017456;28;20025;-79
2023/01/02 05:43:57;;;;;;;33.90;25.10;;;;;;;2.18;65.37;100836.03;5017060;28;20068;-79
2023/01/02 05:46:23;;;;;;;42.67;30.57;;;;;;;3.03;65.38;100978.63;5012920;28;20044;-79
2023/01/02 05:48:48;;;;;;;46.10;34.00;;;;;;;3.09;65.46;100969.56;5012676;28;20026;-79
2023/01/02 05:51:16;;;;;;;48.33;35.87;;;;;;;3.50;65.00;101035.69;5012651;28;20096;-79
2023/01/02 05:53:41;;;;;;;48.73;35.27;;;;;;;2.02;65.35;100795.38;5012589;28;20030;-79
2023/01/02 05:56:17;;;;;;;51.00;39.20;;;;;;;3.38;65.05;101018.19;5012661;28;20029;-79
2023/01/02 05:58:45;;;;;;;50.67;36.53;;;;;;;2.53;65.39;100883.44;5012588;28;20075;-79
2023/01/02 06:01:13;;;;;;;40.90;30.30;;;;;;;3.13;64.90;100971.06;5013285;28;20108;-79
2023/01/02 06:03:42;;;;;;;38.80;29.47;;;;;;;2.96;65.22;100953.81;5012217;28;20049;-79
2023/01/02 06:06:09;;;;;;;33.97;27.43;;;;;;;3.54;65.33;101051.16;5012374;28;20025;-79
2023/01/02 06:08:36;;;;;;;36.77;28.40;;;;;;;3.57;64.76;101048.34;5012657;28;20033;-79
2023/01/02 06:11:02;;;;;;;42.03;31.63;;;;;;;3.60;65.12;101050.78;5012600;28;20144;-79
2023/01/02 06:13:29;;;;;;;39.43;33.03;;;;;;;3.54;65.03;101052.00;5012356;28;20073;-79
2023/01/02 06:15:55;;;;;;;57.27;41.87;;;;;;;3.57;65.06;101057.03;5012039;28;20030;-79
2023/01/02 06:18:21;;;;;;;60.63;41.90;;;;;;;2.74;65.09;100915.16;5027155;28;20527;-79
2023/01/02 06:20:47;;;;;;;60.43;41.33;;;;;;;3.57;65.23;101059.63;5010534;28;20033;-79
2023/01/02 06:23:12;;;;;;;61.90;44.70;;;;;;;3.61;64.70;101060.28;5011926;28;20014;-79
2023/01/02 06:25:38;;;;;;;57.93;42.03;;;;;;;3.57;64.83;101058.81;5012014;28;20530;-79
2023/01/02 06:28:03;;;;;;;41.77;31.27;;;;;;;2.19;64.96;100836.88;5011690;28;20040;-79
2023/01/02 06:30:29;;;;;;;47.70;35.03;;;;;;;3.56;65.21;101064.97;5011779;28;20018;-79
2023/01/02 06:32:55;;;;;;;45.00;34.90;;;;;;;2.50;65.02;100909.69;5010303;28;20117;-80
2023/01/02 06:35:21;;;;;;;47.53;36.53;;;;;;;3.59;64.96;101070.00;5010514;28;20418;-79
2023/01/02 06:37:46;;;;;;;53.97;43.00;;;;;;;3.60;65.06;101071.66;5011745;28;20018;-79
2023/01/02 06:40:12;;;;;;;53.60;42.93;;;;;;;3.10;64.84;100979.06;5011820;28;20022;-79
2023/01/02 06:42:37;;;;;;;50.97;41.93;;;;;;;2.58;65.10;100901.41;5011646;28;20569;-79
2023/01/02 06:45:03;;;;;;;52.73;43.13;;;;;;;3.03;65.21;100959.50;5013551;28;20028;-79
2023/01/02 06:47:29;;;;;;;61.60;48.23;;;;;;;3.72;64.88;101074.38;5016099;28;20042;-79
2023/01/02 06:49:54;;;;;;;66.57;52.60;;;;;;;2.68;65.01;100907.72;5016367;28;20515;-80
2023/01/02 06:52:20;;;;;;;72.47;54.47;;;;;;;3.79;64.71;101090.50;5016065;28;20034;-79
2023/01/02 06:54:46;;;;;;;69.37;51.23;;;;;;;2.82;64.56;100912.09;5016633;28;20030;-79
2023/01/02 06:57:11;;;;;;;73.63;56.83;;;;;;;3.83;64.52;101073.69;5033003;28;20021;-79
2023/01/02 06:59:37;;;;;;;103.23;78.00;;;;;;;3.76;64.79;101057.56;5016920;28;20109;-79
2023/01/02 07:02:02;;;;;;;103.17;76.27;;;;;;;3.90;64.67;101076.75;5011372;28;20545;-80
2023/01/02 07:04:27;;;;;;;132.23;94.00;;;;;;;3.61;64.71;101016.72;5011423;28;20482;-79
2023/01/02 07:06:53;;;;;;;136.77;96.43;;;;;;;3.27;64.49;100963.19;5011444;28;20022;-79
2023/01/02 07:09:18;;;;;;;121.57;85.37;;;;;;;3.77;64.50;101038.34;5010106;28;20018;-79
2023/01/02 07:11:44;;;;;;;110.77;81.20;;;;;;;3.80;64.69;101043.38;5011582;28;20054;-79
2023/01/02 07:14:10;;;;;;;101.17;74.33;;;;;;;3.98;64.47;101074.50;5012673;28;20026;-79
2023/01/02 07:16:36;;;;;;;95.63;68.43;;;;;;;3.98;64.48;101090.16;5014280;28;20418;-79
2023/01/02 07:19:01;;;;;;;71.00;52.13;;;;;;;4.09;64.58;101085.09;5015723;28;20030;-79
2023/01/02 07:21:29;;;;;;;57.37;45.17;;;;;;;3.77;64.94;101029.69;5014479;28;20552;-79
2023/01/02 07:23:54;;;;;;;70.47;52.67;;;;;;;2.80;64.76;100873.06;5015635;28;20026;-79
2023/01/02 07:26:20;;;;;;;65.43;50.00;;;;;;;3.47;64.51;100954.09;5014346;28;20418;-79
2023/01/02 07:28:46;;;;;;;64.90;48.10;;;;;;;3.84;64.76;100994.38;5015074;28;20123;-79
2023/01/02 07:31:14;;;;;;;76.27;55.93;;;;;;;4.17;64.82;101048.84;5019023;28;20502;-79
2023/01/02 07:33:40;;;;;;;80.97;55.03;;;;;;;4.44;64.56;101086.25;5018482;28;20034;-79
2023/01/02 07:36:09;;;;;;;66.60;47.60;;;;;;;4.29;64.67;101058.50;5020970;28;20026;-79
2023/01/02 07:38:36;;;;;;;67.23;49.17;;;;;;;3.43;64.72;100926.50;5021481;28;20026;-80
2023/01/02 07:41:02;;;;;;;77.13;53.60;;;;;;;4.03;64.89;101001.84;5021229;28;20022;-79
2023/01/02 07:43:27;;;;;;;75.50;51.43;;;;;;;3.88;64.93;100974.13;5036091;28;20029;-79
2023/01/02 07:45:53;;;;;;;72.63;50.70;;;;;;;4.51;64.63;101057.09;5015893;28;20108;-79
2023/01/02 07:48:18;;;;;;;69.70;50.57;;;;;;;3.88;64.92;100941.00;5014287;28;20064;-79
2023/01/02 07:50:44;;;;;;;81.50;60.50;;;;;;;4.83;64.83;101096.81;5015686;28;20040;-79
2023/01/02 07:53:10;;;;;;;85.37;61.30;;;;;;;4.74;64.57;101053.78;5015633;28;20037;-79
2023/01/02 07:55:35;;;;;;;80.70;57.57;;;;;;;4.24;64.72;100963.00;5015062;28;20030;-79
2023/01/02 07:58:00;;;;;;;97.73;63.73;;;;;;;4.34;64.55;100967.50;5015233;28;20018;-79
2023/01/02 08:00:26;;;;;;;92.20;64.60;;;;;;;4.96;64.84;101061.84;5014583;28;20030;-79
2023/01/02 08:02:53;;;;;;;94.60;65.37;;;;;;;3.92;64.63;100874.53;5014159;28;20022;-79
2023/01/02 08:05:19;;;;;;;97.80;66.87;;;;;;;5.28;64.80;101103.31;5014206;28;20038;-79
2023/01/02 08:07:45;;;;;;;105.90;72.13;;;;;;;4.28;64.66;100915.63;5014019;28;20108;-79
2023/01/02 08:10:11;;;;;;;96.37;69.83;;;;;;;4.18;65.28;100883.22;5014064;28;20057;-80
2023/01/02 08:12:36;;;;;;;88.57;60.93;;;;;;;5.07;64.94;101027.91;5028923;28;20050;-80
2023/01/02 08:15:02;;;;;;;102.93;74.27;;;;;;;4.98;65.32;101023.31;5016261;28;20084;-79
2023/01/02 08:17:29;;;;;;;96.73;69.27;;;;;;;5.62;65.40;101096.56;5019019;28;20108;-79
2023/01/02 08:19:55;;;;;;;94.43;67.20;;;;;;;5.67;65.41;101108.41;5033235;28;20391;-79
2023/01/02 08:22:20;;;;;;;100.17;70.00;;;;;;;5.73;65.40;101107.97;5018215;28;20056;-79
2023/01/02 08:24:46;;;;;;;94.07;67.57;;;;;;;5.81;65.52;101088.25;5017920;28;20021;-79
2023/01/02 08:27:11;;;;;;;97.80;68.47;;;;;;;5.13;64.92;100974.28;5015897;28;20510;-78
2023/01/02 08:29:37;;;;;;;90.90;66.27;;;;;;;5.61;65.87;101035.47;5027257;28;20088;-78
2023/01/02 08:32:02;;;;;;;91.23;66.47;;;;;;;5.13;65.78;100955.97;5022776;28;20511;-79
2023/01/02 08:34:28;;;;;;;86.10;64.50;;;;;;;6.11;65.82;101091.34;5013756;28;20538;-79
2023/01/02 08:36:53;;;;;;;75.00;54.97;;;;;;;6.07;65.65;101065.44;5013563;28;20113;-79
2023/01/02 08:39:18;;;;;;;76.93;59.85;;;;;;;6.12;65.19;101074.66;5013720;28;20025;-79
2023/01/02 08:41:44;;;;;;;69.20;54.10;;;;;;;6.20;65.43;101068.84;5013735;28;20490;-79
2023/01/02 08:44:09;;;;;;;72.40;53.33;;;;;;;5.38;65.55;100918.41;5013466;28;20057;-79
2023/01/02 08:46:35;;;;;;;66.55;50.35;;;;;;;5.45;66.01;100931.91;5013279;28;20097;-79
2023/01/02 08:49:01;;;;;;;64.13;48.42;;;;;;;6.01;66.42;101002.03;5013263;28;20064;-79
2023/01/02 08:51:27;;;;;;;59.65;45.50;;;;;;;6.56;65.51;101092.34;5013123;28;20467;-79
2023/01/02 08:53:53;;;;;;;54.92;42.58;;;;;;;6.50;65.84;101057.88;5012980;28;20076;-79
2023/01/02 08:56:30;;;;;;;51.75;42.38;;;;;;;6.69;65.84;101066.06;5012700;28;20036;-79
2023/01/02 08:59:07;;;;;;;49.47;37.35;;;;;;;6.69;66.03;101055.56;5013258;28;20098;-79
2023/01/02 09:01:33;;;;;;;49.67;35.60;;;;;;;6.85;66.11;101065.72;5013024;28;20425;-79
2023/01/02 09:03:59;;;;;;;45.65;34.22;;;;;;;6.93;66.04;101064.19;5012732;28;20404;-79
2023/01/02 09:06:26;;;;;;;58.80;42.33;;;;;;;6.84;66.31;101033.38;5012662;28;20041;-79
2023/01/02 09:08:54;;;;;;;56.97;41.55;;;;;;;7.04;65.97;101044.16;5012573;28;20517;-79
2023/01/02 09:11:26;;;;;;;52.33;43.53;;;;;;;6.24;65.92;100899.81;5012516;28;20022;-79
2023/01/02 09:13:52;;;;;;;53.20;40.58;;;;;;;6.88;65.45;101013.00;5012594;28;20034;-79
2023/01/02 09:16:18;;;;;;;51.58;40.35;;;;;;;7.15;65.94;101010.00;5012693;28;20105;-79
2023/01/02 09:18:44;;;;;;;46.92;35.55;;;;;;;6.85;66.01;100950.22;5012584;28;20486;-79
2023/01/02 09:21:09;;;;;;;41.85;33.30;;;;;;;7.43;66.20;101033.19;5012426;28;20100;-79
2023/01/02 09:23:35;;;;;;;43.08;33.78;;;;;;;7.33;66.19;101021.69;5012568;28;20097;-79
2023/01/02 09:26:03;;;;;;;50.65;38.22;;;;;;;7.38;66.14;101002.94;5012413;28;20380;-79
2023/01/02 09:28:31;;;;;;;52.15;39.40;;;;;;;7.64;65.80;101023.59;5012488;28;20128;-79
2023/01/02 09:30:57;;;;;;;51.45;40.15;;;;;;;7.69;66.44;101020.59;5012269;28;20025;-79
2023/01/02 09:33:22;;;;;;;50.17;38.80;;;;;;;6.92;66.07;100889.22;5012332;28;20026;-79
2023/01/02 09:35:48;;;;;;;48.05;37.83;;;;;;;7.83;65.77;101012.41;5012413;28;20025;-79
2023/01/02 09:38:14;;;;;;;51.53;39.17;;;;;;;7.52;65.75;100960.66;5012068;28;20026;-79
2023/01/02 09:40:53;;;;;;;50.90;38.45;;;;;;;7.98;65.54;101013.78;5011665;28;20491;-79
2023/01/02 09:43:31;;;;;;;38.03;30.10;;;;;;;8.05;65.43;101006.22;5010795;28;20450;-79
2023/01/02 09:45:59;;;;;;;32.33;25.83;;;;;;;8.01;65.52;100985.56;5027353;28;20109;-79
2023/01/02 09:48:32;;;;;;;26.25;22.23;;;;;;;7.54;65.42;100891.25;5012091;28;20022;-79
2023/01/02 09:50:57;;;;;;;26.20;21.77;;;;;;;7.23;65.38;100835.06;5011870;28;20025;-79
2023/01/02 09:53:23;;;;;;;32.13;25.40;;;;;;;7.44;65.34;100840.41;5010418;28;20153;-79
2023/01/02 09:56:14;;;;;;;30.60;24.13;;;;;;;8.52;65.54;100983.09;5011775;28;20013;-79
2023/01/02 09:58:49;;;;;;;29.00;21.48;;;;;;;8.66;65.70;100982.75;5011881;28;20040;-79
2023/01/02 10:01:29;;;;;;;25.75;19.88;;;;;;;8.78;65.64;100971.16;5012019;28;20021;-80
2023/01/02 10:04:06;;;;;;;24.20;20.92;;;;;;;8.86;65.50;100966.06;5012001;28;20018;-79
2023/01/02 10:06:42;;;;;;;27.13;17.67;;;;;;;9.00;65.27;100958.81;5011662;28;20087;-79
2023/01/02 10:09:18;;;;;;;18.10;15.13;;;;;;;9.11;65.47;100954.28;5011624;28;20032;-79
2023/01/02 10:12:02;;;;;;;17.65;14.80;;;;;;;8.94;65.29;100919.84;5011547;28;20022;-78
2023/01/02 10:14:40;;;;;;;15.77;12.68;;;;;;;9.30;64.94;100957.94;5011774;28;20033;-79
2023/01/02 10:17:07;;;;;;;16.70;13.80;;;;;;;9.27;64.65;100937.09;5011813;28;20026;-78
2023/01/02 10:19:44;;;;;;;18.45;13.13;;;;;;;9.46;64.18;100939.78;5011586;28;20029;-79
2023/01/02 10:22:14;;;;;;;16.48;13.15;;;;;;;9.50;64.42;100943.81;5011606;28;20022;-79
2023/01/02 10:25:02;;;;;;;17.42;13.23;;;;;;;9.60;64.00;100941.19;5011566;28;20010;-79
2023/01/02 10:27:34;;;;;;;19.92;14.80;;;;;;;9.30;64.12;100866.50;5011655;28;20018;-79
2023/01/02 10:30:21;;;;;;;15.73;12.70;;;;;;;9.19;64.11;100846.41;5011700;28;20431;-79
2023/01/02 10:33:03;;;;;;;17.25;13.32;;;;;;;9.01;63.91;100794.50;5011250;28;20037;-79
2023/01/02 10:36:01;;;;;;;16.90;13.10;;;;;;;9.89;63.74;100923.59;5010303;28;20395;-78
2023/01/02 10:38:37;;;;;;;15.40;13.20;;;;;;;9.88;63.75;100903.47;4989117;28;20033;-79
2023/01/02 10:41:03;;;;;;;14.43;12.93;;;;;;;10.01;63.91;100913.72;5011212;28;20108;-79
2023/01/02 10:43:31;;;;;;;15.27;13.10;;;;;;;10.06;63.47;100901.75;5026505;28;20108;-79
2023/01/02 10:45:56;;;;;;;15.90;13.45;;;;;;;10.00;63.58;100890.94;5011394;28;20026;-79
2023/01/02 10:48:26;;;;;;;15.43;12.95;;;;;;;10.12;63.16;100905.66;5011261;28;20097;-79
2023/01/02 10:50:59;;;;;;;15.45;12.30;;;;;;;10.13;63.78;100905.50;5013118;28;20022;-79
2023/01/02 10:53:27;;;;;;;18.92;13.35;;;;;;;10.17;63.32;100893.69;5015140;28;20053;-79
2023/01/02 10:55:53;;;;;;;15.82;12.88;;;;;;;10.16;63.21;100889.38;5015074;28;20026;-79
2023/01/02 10:58:21;;;;;;;15.30;13.52;;;;;;;10.17;63.40;100888.41;5030242;28;20506;-79
2023/01/02 11:01:01;;;;;;;18.27;14.13;;;;;;;9.17;62.75;100731.56;5015110;28;20017;-80
2023/01/02 11:03:26;;;;;;;21.02;16.38;;;;;;;9.84;62.87;100821.13;5015132;28;20017;-79
2023/01/02 11:05:55;;;;;;;21.50;16.35;;;;;;;10.25;62.94;100884.25;5015533;28;20026;-79
2023/01/02 11:08:23;;;;;;;20.35;16.05;;;;;;;9.36;62.67;100735.97;5015253;28;20025;-79
2023/01/02 11:10:50;;;;;;;20.45;15.88;;;;;;;10.16;62.76;100852.44;5014972;28;20050;-79
2023/01/02 11:13:18;;;;;;;20.27;16.75;;;;;;;10.32;63.20;100866.88;5014780;28;20045;-79
2023/01/02 11:15:58;;;;;;;20.10;15.20;;;;;;;9.84;62.28;100778.09;5014893;28;20080;-79
2023/01/02 11:18:26;;;;;;;18.58;15.07;;;;;;;10.37;63.01;100862.81;5013609;28;20025;-79
2023/01/02 11:20:54;;;;;;;19.42;15.40;;;;;;;10.19;62.37;100819.66;5013316;28;20025;-79
2023/01/02 11:23:25;;;;;;;19.98;16.35;;;;;;;10.10;62.50;100784.41;5014610;28;20050;-79
2023/01/02 11:25:52;;;;;;;20.98;15.80;;;;;;;9.98;62.11;100763.59;5029935;28;20406;-79
2023/01/02 11:28:22;;;;;;;20.73;16.30;;;;;;;9.75;61.68;100710.38;5014711;28;20502;-79
2023/01/02 11:31:00;;;;;;;19.83;16.42;;;;;;;10.46;62.07;100817.09;5014584;28;20109;-79